sensor_id;sensor_type;location;lat;lon;timestamp;temperature;humidity
49385;DHT22;36795;45.028;38.968;2022-08-11T00:02:45;28.60;45.50
49385;DHT22;36795;45.028;38.968;2022-08-11T00:05:35;28.60;45.50
49385;DHT22;36795;45.028;38.968;2022-08-11T00:08:30;28.60;45.50
49385;DHT22;36795;45.028;38.968;2022-08-11T00:11:17;28.60;45.60
49385;DHT22;36795;45.028;38.968;2022-08-11T00:17:06;28.60;45.60
49385;DHT22;36795;45.028;38.968;2022-08-11T00:20:01;28.50;45.60
49385;DHT22;36795;45.028;38.968;2022-08-11T00:22:49;28.50;45.70
49385;DHT22;36795;45.028;38.968;2022-08-11T00:25:48;28.40;45.60
49385;DHT22;36795;45.028;38.968;2022-08-11T00:28:35;28.50;45.70
49385;DHT22;36795;45.028;38.968;2022-08-11T00:31:30;28.50;45.80
49385;DHT22;36795;45.028;38.968;2022-08-11T00:34:20;28.50;45.90
49385;DHT22;36795;45.028;38.968;2022-08-11T00:37:10;28.40;46.00
49385;DHT22;36795;45.028;38.968;2022-08-11T00:39:58;28.30;46.20
49385;DHT22;36795;45.028;38.968;2022-08-11T00:46:09;28.30;46.10
49385;DHT22;36795;45.028;38.968;2022-08-11T01:25:19;28.00;47.60
49385;DHT22;36795;45.028;38.968;2022-08-11T01:41:31;27.40;52.90
49385;DHT22;36795;45.028;38.968;2022-08-11T01:51:16;27.20;55.50
49385;DHT22;36795;45.028;38.968;2022-08-11T01:54:25;27.20;56.10
49385;DHT22;36795;45.028;38.968;2022-08-11T02:00:13;27.20;56.90
49385;DHT22;36795;45.028;38.968;2022-08-11T02:06:14;27.10;57.40
49385;DHT22;36795;45.028;38.968;2022-08-11T02:12:49;27.30;57.50
49385;DHT22;36795;45.028;38.968;2022-08-11T02:16:46;27.30;57.30
49385;DHT22;36795;45.028;38.968;2022-08-11T02:22:50;27.30;56.80
49385;DHT22;36795;45.028;38.968;2022-08-11T02:26:01;27.30;56.40
49385;DHT22;36795;45.028;38.968;2022-08-11T02:29:15;27.40;56.10
49385;DHT22;36795;45.028;38.968;2022-08-11T02:32:28;27.40;55.70
49385;DHT22;36795;45.028;38.968;2022-08-11T02:39:08;27.40;55.50
49385;DHT22;36795;45.028;38.968;2022-08-11T02:42:06;27.30;55.60
49385;DHT22;36795;45.028;38.968;2022-08-11T02:45:31;27.30;55.60
49385;DHT22;36795;45.028;38.968;2022-08-11T02:58:47;27.30;55.20
49385;DHT22;36795;45.028;38.968;2022-08-11T03:02:30;27.30;54.90
49385;DHT22;36795;45.028;38.968;2022-08-11T03:12:24;27.30;54.50
49385;DHT22;36795;45.028;38.968;2022-08-11T03:25:52;27.30;54.10
49385;DHT22;36795;45.028;38.968;2022-08-11T03:31:58;27.30;54.00
49385;DHT22;36795;45.028;38.968;2022-08-11T03:34:48;27.30;54.00
49385;DHT22;36795;45.028;38.968;2022-08-11T03:37:47;27.20;54.30
49385;DHT22;36795;45.028;38.968;2022-08-11T03:41:04;27.10;54.60
49385;DHT22;36795;45.028;38.968;2022-08-11T04:00:38;26.80;56.70
49385;DHT22;36795;45.028;38.968;2022-08-11T04:41:05;27.00;57.60
49385;DHT22;36795;45.028;38.968;2022-08-11T04:54:52;26.90;58.80
49385;DHT22;36795;45.028;38.968;2022-08-11T05:01:14;27.00;58.00
49385;DHT22;36795;45.028;38.968;2022-08-11T05:05:08;27.00;57.60
49385;DHT22;36795;45.028;38.968;2022-08-11T05:09:03;27.00;57.30
49385;DHT22;36795;45.028;38.968;2022-08-11T05:14:51;27.10;57.10
49385;DHT22;36795;45.028;38.968;2022-08-11T05:18:01;27.00;57.20
49385;DHT22;36795;45.028;38.968;2022-08-11T05:21:11;26.90;57.50
49385;DHT22;36795;45.028;38.968;2022-08-11T05:24:23;26.90;57.60
49385;DHT22;36795;45.028;38.968;2022-08-11T05:27:44;27.00;57.50
49385;DHT22;36795;45.028;38.968;2022-08-11T05:31:04;27.00;57.10
49385;DHT22;36795;45.028;38.968;2022-08-11T05:34:16;27.10;56.60
49385;DHT22;36795;45.028;38.968;2022-08-11T05:37:30;27.00;56.40
49385;DHT22;36795;45.028;38.968;2022-08-11T05:40:17;26.90;56.60
49385;DHT22;36795;45.028;38.968;2022-08-11T05:43:23;27.00;56.70
49385;DHT22;36795;45.028;38.968;2022-08-11T05:46:29;27.00;56.50
49385;DHT22;36795;45.028;38.968;2022-08-11T05:49:47;27.10;56.60
49385;DHT22;36795;45.028;38.968;2022-08-11T05:52:53;27.20;56.50
49385;DHT22;36795;45.028;38.968;2022-08-11T05:56:03;27.20;56.50
49385;DHT22;36795;45.028;38.968;2022-08-11T05:59:15;27.40;56.30
49385;DHT22;36795;45.028;38.968;2022-08-11T06:02:06;27.40;56.10
49385;DHT22;36795;45.028;38.968;2022-08-11T06:04:57;27.40;56.00
49385;DHT22;36795;45.028;38.968;2022-08-11T06:07:47;27.30;56.10
49385;DHT22;36795;45.028;38.968;2022-08-11T06:10:42;27.20;56.20
49385;DHT22;36795;45.028;38.968;2022-08-11T06:13:29;27.20;56.20
49385;DHT22;36795;45.028;38.968;2022-08-11T06:16:21;27.20;56.40
49385;DHT22;36795;45.028;38.968;2022-08-11T06:19:09;27.20;56.50
49385;DHT22;36795;45.028;38.968;2022-08-11T06:21:56;27.20;56.50
49385;DHT22;36795;45.028;38.968;2022-08-11T06:24:51;27.10;56.70
49385;DHT22;36795;45.028;38.968;2022-08-11T06:27:40;27.10;56.80
49385;DHT22;36795;45.028;38.968;2022-08-11T06:33:34;27.30;56.50
49385;DHT22;36795;45.028;38.968;2022-08-11T06:36:30;27.50;56.00
49385;DHT22;36795;45.028;38.968;2022-08-11T06:39:28;27.50;55.80
49385;DHT22;36795;45.028;38.968;2022-08-11T06:48:25;27.80;54.90
49385;DHT22;36795;45.028;38.968;2022-08-11T06:51:12;27.80;54.70
49385;DHT22;36795;45.028;38.968;2022-08-11T06:54:00;27.80;54.80
49385;DHT22;36795;45.028;38.968;2022-08-11T06:56:47;27.80;55.00
49385;DHT22;36795;45.028;38.968;2022-08-11T06:59:52;27.80;55.00
49385;DHT22;36795;45.028;38.968;2022-08-11T07:03:10;27.80;55.00
49385;DHT22;36795;45.028;38.968;2022-08-11T07:06:14;27.90;55.00
49385;DHT22;36795;45.028;38.968;2022-08-11T07:09:32;27.90;54.80
49385;DHT22;36795;45.028;38.968;2022-08-11T07:12:44;28.00;54.80
49385;DHT22;36795;45.028;38.968;2022-08-11T07:15:53;28.10;54.90
49385;DHT22;36795;45.028;38.968;2022-08-11T07:18:41;28.20;54.60
49385;DHT22;36795;45.028;38.968;2022-08-11T07:21:47;28.20;54.60
49385;DHT22;36795;45.028;38.968;2022-08-11T07:25:29;28.20;54.50
49385;DHT22;36795;45.028;38.968;2022-08-11T07:28:28;28.30;54.60
49385;DHT22;36795;45.028;38.968;2022-08-11T07:31:56;28.30;54.40
49385;DHT22;36795;45.028;38.968;2022-08-11T07:34:49;28.40;54.10
49385;DHT22;36795;45.028;38.968;2022-08-11T07:37:40;28.40;54.00
49385;DHT22;36795;45.028;38.968;2022-08-11T07:40:28;28.40;53.90
49385;DHT22;36795;45.028;38.968;2022-08-11T07:43:15;28.30;53.90
49385;DHT22;36795;45.028;38.968;2022-08-11T07:46:03;28.40;54.10
49385;DHT22;36795;45.028;38.968;2022-08-11T07:49:09;28.50;54.10
49385;DHT22;36795;45.028;38.968;2022-08-11T07:52:14;28.60;54.00
49385;DHT22;36795;45.028;38.968;2022-08-11T07:55:16;28.60;54.00
49385;DHT22;36795;45.028;38.968;2022-08-11T07:58:04;28.70;53.90
49385;DHT22;36795;45.028;38.968;2022-08-11T08:01:11;28.70;54.00
49385;DHT22;36795;45.028;38.968;2022-08-11T08:04:17;28.80;54.20
49385;DHT22;36795;45.028;38.968;2022-08-11T08:07:23;28.80;54.70
49385;DHT22;36795;45.028;38.968;2022-08-11T08:10:28;28.70;55.40
49385;DHT22;36795;45.028;38.968;2022-08-11T08:13:34;28.70;55.80
49385;DHT22;36795;45.028;38.968;2022-08-11T08:16:41;28.80;56.10
49385;DHT22;36795;45.028;38.968;2022-08-11T08:19:47;28.80;56.10
49385;DHT22;36795;45.028;38.968;2022-08-11T08:22:34;28.90;56.40
49385;DHT22;36795;45.028;38.968;2022-08-11T08:25:26;29.00;56.30
49385;DHT22;36795;45.028;38.968;2022-08-11T08:28:18;29.10;56.40
49385;DHT22;36795;45.028;38.968;2022-08-11T08:31:05;29.30;56.20
49385;DHT22;36795;45.028;38.968;2022-08-11T08:33:52;29.50;55.80
49385;DHT22;36795;45.028;38.968;2022-08-11T08:36:46;29.70;55.30
49385;DHT22;36795;45.028;38.968;2022-08-11T08:39:33;29.80;54.90
49385;DHT22;36795;45.028;38.968;2022-08-11T08:42:34;29.80;54.70
49385;DHT22;36795;45.028;38.968;2022-08-11T08:45:24;29.80;54.30
49385;DHT22;36795;45.028;38.968;2022-08-11T08:48:16;29.80;54.20
49385;DHT22;36795;45.028;38.968;2022-08-11T08:51:10;29.90;54.10
49385;DHT22;36795;45.028;38.968;2022-08-11T08:54:28;30.00;54.00
49385;DHT22;36795;45.028;38.968;2022-08-11T08:57:16;30.20;53.90
49385;DHT22;36795;45.028;38.968;2022-08-11T09:00:06;30.30;53.50
49385;DHT22;36795;45.028;38.968;2022-08-11T09:02:52;30.40;53.40
49385;DHT22;36795;45.028;38.968;2022-08-11T09:05:40;30.50;53.00
49385;DHT22;36795;45.028;38.968;2022-08-11T09:08:30;30.60;52.50
49385;DHT22;36795;45.028;38.968;2022-08-11T09:11:17;30.90;51.70
49385;DHT22;36795;45.028;38.968;2022-08-11T09:14:36;31.00;51.30
49385;DHT22;36795;45.028;38.968;2022-08-11T09:17:46;31.20;51.00
49385;DHT22;36795;45.028;38.968;2022-08-11T09:20:36;31.10;50.90
49385;DHT22;36795;45.028;38.968;2022-08-11T09:23:23;31.30;50.80
49385;DHT22;36795;45.028;38.968;2022-08-11T09:26:29;31.40;50.70
49385;DHT22;36795;45.028;38.968;2022-08-11T09:29:34;31.50;50.90
49385;DHT22;36795;45.028;38.968;2022-08-11T09:32:23;31.50;51.10
49385;DHT22;36795;45.028;38.968;2022-08-11T09:35:11;31.50;51.20
49385;DHT22;36795;45.028;38.968;2022-08-11T09:37:58;31.40;51.70
49385;DHT22;36795;45.028;38.968;2022-08-11T09:41:09;31.60;51.50
49385;DHT22;36795;45.028;38.968;2022-08-11T09:43:56;32.20;50.80
49385;DHT22;36795;45.028;38.968;2022-08-11T09:47:02;32.90;49.70
49385;DHT22;36795;45.028;38.968;2022-08-11T09:49:52;34.10;48.00
49385;DHT22;36795;45.028;38.968;2022-08-11T09:52:40;34.30;47.30
49385;DHT22;36795;45.028;38.968;2022-08-11T09:55:27;34.10;47.20
49385;DHT22;36795;45.028;38.968;2022-08-11T09:58:14;33.70;47.80
49385;DHT22;36795;45.028;38.968;2022-08-11T10:01:03;33.30;48.40
49385;DHT22;36795;45.028;38.968;2022-08-11T10:04:04;33.40;48.70
49385;DHT22;36795;45.028;38.968;2022-08-11T10:06:53;33.70;48.00
49385;DHT22;36795;45.028;38.968;2022-08-11T10:09:56;33.90;47.60
49385;DHT22;36795;45.028;38.968;2022-08-11T10:12:52;33.70;47.50
49385;DHT22;36795;45.028;38.968;2022-08-11T10:15:42;33.50;47.80
49385;DHT22;36795;45.028;38.968;2022-08-11T10:18:41;33.20;48.20
49385;DHT22;36795;45.028;38.968;2022-08-11T10:21:46;33.10;48.30
49385;DHT22;36795;45.028;38.968;2022-08-11T10:24:52;33.30;48.00
49385;DHT22;36795;45.028;38.968;2022-08-11T10:27:58;33.40;47.70
49385;DHT22;36795;45.028;38.968;2022-08-11T10:30:45;33.50;47.60
49385;DHT22;36795;45.028;38.968;2022-08-11T10:33:51;33.70;48.20
49385;DHT22;36795;45.028;38.968;2022-08-11T10:36:48;34.30;46.60
49385;DHT22;36795;45.028;38.968;2022-08-11T10:39:35;35.00;45.50
49385;DHT22;36795;45.028;38.968;2022-08-11T10:42:22;35.00;45.40
49385;DHT22;36795;45.028;38.968;2022-08-11T10:45:41;34.60;46.10
49385;DHT22;36795;45.028;38.968;2022-08-11T10:48:46;34.50;46.40
49385;DHT22;36795;45.028;38.968;2022-08-11T10:51:32;34.60;46.30
49385;DHT22;36795;45.028;38.968;2022-08-11T10:54:39;34.80;46.10
49385;DHT22;36795;45.028;38.968;2022-08-11T10:57:45;35.00;45.70
49385;DHT22;36795;45.028;38.968;2022-08-11T11:00:52;34.80;45.90
49385;DHT22;36795;45.028;38.968;2022-08-11T11:03:42;35.00;45.90
49385;DHT22;36795;45.028;38.968;2022-08-11T11:09:30;35.40;45.00
49385;DHT22;36795;45.028;38.968;2022-08-11T11:12:32;35.20;45.40
49385;DHT22;36795;45.028;38.968;2022-08-11T11:15:41;35.10;45.60
49385;DHT22;36795;45.028;38.968;2022-08-11T11:18:47;35.30;45.60
49385;DHT22;36795;45.028;38.968;2022-08-11T11:21:39;36.10;44.20
49385;DHT22;36795;45.028;38.968;2022-08-11T11:24:59;36.60;43.10
49385;DHT22;36795;45.028;38.968;2022-08-11T11:28:17;36.70;43.10
49385;DHT22;36795;45.028;38.968;2022-08-11T11:31:12;36.40;43.20
49385;DHT22;36795;45.028;38.968;2022-08-11T11:34:26;36.20;43.70
49385;DHT22;36795;45.028;38.968;2022-08-11T11:37:16;36.20;43.60
49385;DHT22;36795;45.028;38.968;2022-08-11T11:40:12;36.10;43.20
49385;DHT22;36795;45.028;38.968;2022-08-11T11:43:00;35.80;43.20
49385;DHT22;36795;45.028;38.968;2022-08-11T11:45:46;36.30;42.80
49385;DHT22;36795;45.028;38.968;2022-08-11T11:48:33;36.80;42.00
49385;DHT22;36795;45.028;38.968;2022-08-11T11:51:22;37.20;41.60
49385;DHT22;36795;45.028;38.968;2022-08-11T11:54:09;37.20;41.40
49385;DHT22;36795;45.028;38.968;2022-08-11T11:56:56;36.80;41.70
49385;DHT22;36795;45.028;38.968;2022-08-11T11:59:43;36.40;42.20
49385;DHT22;36795;45.028;38.968;2022-08-11T12:02:58;36.20;42.60
49385;DHT22;36795;45.028;38.968;2022-08-11T12:05:45;36.50;42.10
49385;DHT22;36795;45.028;38.968;2022-08-11T12:08:32;36.70;42.00
49385;DHT22;36795;45.028;38.968;2022-08-11T12:11:22;37.00;41.60
49385;DHT22;36795;45.028;38.968;2022-08-11T12:14:45;37.40;41.00
49385;DHT22;36795;45.028;38.968;2022-08-11T12:17:31;37.40;40.80
49385;DHT22;36795;45.028;38.968;2022-08-11T12:20:17;37.20;41.00
49385;DHT22;36795;45.028;38.968;2022-08-11T12:23:06;37.10;41.30
49385;DHT22;36795;45.028;38.968;2022-08-11T12:26:13;37.40;41.30
49385;DHT22;36795;45.028;38.968;2022-08-11T12:29:22;37.80;40.20
49385;DHT22;36795;45.028;38.968;2022-08-11T12:32:14;37.80;39.60
49385;DHT22;36795;45.028;38.968;2022-08-11T12:35:01;37.40;39.60
49385;DHT22;36795;45.028;38.968;2022-08-11T12:37:53;37.00;40.10
49385;DHT22;36795;45.028;38.968;2022-08-11T12:40:50;36.80;40.60
49385;DHT22;36795;45.028;38.968;2022-08-11T12:44:00;36.50;40.80
49385;DHT22;36795;45.028;38.968;2022-08-11T12:47:05;36.50;41.30
49385;DHT22;36795;45.028;38.968;2022-08-11T12:49:53;36.40;41.20
49385;DHT22;36795;45.028;38.968;2022-08-11T12:53:26;36.20;41.30
49385;DHT22;36795;45.028;38.968;2022-08-11T12:56:13;35.90;41.80
49385;DHT22;36795;45.028;38.968;2022-08-11T12:59:18;35.90;42.20
49385;DHT22;36795;45.028;38.968;2022-08-11T13:02:23;36.00;41.80
49385;DHT22;36795;45.028;38.968;2022-08-11T13:05:30;36.00;41.60
49385;DHT22;36795;45.028;38.968;2022-08-11T13:08:23;36.00;41.60
49385;DHT22;36795;45.028;38.968;2022-08-11T13:11:11;36.00;41.80
49385;DHT22;36795;45.028;38.968;2022-08-11T13:14:16;35.90;41.80
49385;DHT22;36795;45.028;38.968;2022-08-11T13:17:03;35.60;42.00
49385;DHT22;36795;45.028;38.968;2022-08-11T13:20:11;35.60;42.40
49385;DHT22;36795;45.028;38.968;2022-08-11T13:22:58;35.50;42.40
49385;DHT22;36795;45.028;38.968;2022-08-11T13:25:44;35.60;42.40
49385;DHT22;36795;45.028;38.968;2022-08-11T13:28:31;35.70;42.40
49385;DHT22;36795;45.028;38.968;2022-08-11T13:31:17;35.80;42.10
49385;DHT22;36795;45.028;38.968;2022-08-11T13:34:05;35.70;42.00
49385;DHT22;36795;45.028;38.968;2022-08-11T13:36:56;35.60;42.10
49385;DHT22;36795;45.028;38.968;2022-08-11T13:39:44;35.60;41.70
49385;DHT22;36795;45.028;38.968;2022-08-11T13:42:33;35.40;41.40
49385;DHT22;36795;45.028;38.968;2022-08-11T13:45:22;35.30;41.20
49385;DHT22;36795;45.028;38.968;2022-08-11T13:48:09;35.30;41.50
49385;DHT22;36795;45.028;38.968;2022-08-11T13:50:56;35.60;41.30
49385;DHT22;36795;45.028;38.968;2022-08-11T13:54:32;35.80;41.00
49385;DHT22;36795;45.028;38.968;2022-08-11T13:57:17;35.80;40.70
49385;DHT22;36795;45.028;38.968;2022-08-11T14:00:06;35.80;40.20
49385;DHT22;36795;45.028;38.968;2022-08-11T14:02:57;36.10;40.50
49385;DHT22;36795;45.028;38.968;2022-08-11T14:05:47;36.10;39.90
49385;DHT22;36795;45.028;38.968;2022-08-11T14:08:37;36.10;39.70
49385;DHT22;36795;45.028;38.968;2022-08-11T14:11:24;36.20;39.50
49385;DHT22;36795;45.028;38.968;2022-08-11T14:14:33;36.10;39.60
49385;DHT22;36795;45.028;38.968;2022-08-11T14:17:21;35.60;40.30
49385;DHT22;36795;45.028;38.968;2022-08-11T14:20:08;35.10;41.00
49385;DHT22;36795;45.028;38.968;2022-08-11T14:22:56;34.70;41.50
49385;DHT22;36795;45.028;38.968;2022-08-11T14:25:48;34.90;41.50
49385;DHT22;36795;45.028;38.968;2022-08-11T14:29:13;35.50;41.10
49385;DHT22;36795;45.028;38.968;2022-08-11T14:32:09;36.00;40.40
49385;DHT22;36795;45.028;38.968;2022-08-11T14:34:57;36.00;40.50
49385;DHT22;36795;45.028;38.968;2022-08-11T14:37:43;35.70;40.80
49385;DHT22;36795;45.028;38.968;2022-08-11T14:40:30;35.40;42.00
49385;DHT22;36795;45.028;38.968;2022-08-11T14:43:34;35.10;43.20
49385;DHT22;36795;45.028;38.968;2022-08-11T14:46:41;35.70;43.00
49385;DHT22;36795;45.028;38.968;2022-08-11T14:49:48;36.40;42.10
49385;DHT22;36795;45.028;38.968;2022-08-11T14:52:38;36.70;41.60
49385;DHT22;36795;45.028;38.968;2022-08-11T14:55:26;36.70;41.50
49385;DHT22;36795;45.028;38.968;2022-08-11T14:58:31;36.20;42.10
49385;DHT22;36795;45.028;38.968;2022-08-11T15:01:20;35.90;42.60
49385;DHT22;36795;45.028;38.968;2022-08-11T15:04:25;36.00;42.30
49385;DHT22;36795;45.028;38.968;2022-08-11T15:07:12;36.00;42.30
49385;DHT22;36795;45.028;38.968;2022-08-11T15:10:01;35.90;42.20
49385;DHT22;36795;45.028;38.968;2022-08-11T15:12:48;35.80;42.40
49385;DHT22;36795;45.028;38.968;2022-08-11T15:15:35;35.60;42.80
49385;DHT22;36795;45.028;38.968;2022-08-11T15:18:40;35.50;43.30
49385;DHT22;36795;45.028;38.968;2022-08-11T15:21:26;35.30;43.60
49385;DHT22;36795;45.028;38.968;2022-08-11T15:24:31;34.90;43.90
49385;DHT22;36795;45.028;38.968;2022-08-11T15:27:21;34.40;44.80
49385;DHT22;36795;45.028;38.968;2022-08-11T15:30:28;33.90;45.40
49385;DHT22;36795;45.028;38.968;2022-08-11T15:33:35;33.60;45.80
49385;DHT22;36795;45.028;38.968;2022-08-11T15:36:41;33.20;46.30
49385;DHT22;36795;45.028;38.968;2022-08-11T15:40:10;32.90;46.70
49385;DHT22;36795;45.028;38.968;2022-08-11T15:46:49;32.60;47.50
49385;DHT22;36795;45.028;38.968;2022-08-11T15:49:39;32.60;47.80
49385;DHT22;36795;45.028;38.968;2022-08-11T15:52:31;32.50;48.00
49385;DHT22;36795;45.028;38.968;2022-08-11T15:55:17;32.50;48.20
49385;DHT22;36795;45.028;38.968;2022-08-11T15:58:07;32.40;48.20
49385;DHT22;36795;45.028;38.968;2022-08-11T16:01:13;32.40;48.30
49385;DHT22;36795;45.028;38.968;2022-08-11T16:04:24;32.20;48.60
49385;DHT22;36795;45.028;38.968;2022-08-11T16:07:14;32.10;48.90
49385;DHT22;36795;45.028;38.968;2022-08-11T16:10:04;32.00;49.20
49385;DHT22;36795;45.028;38.968;2022-08-11T16:13:00;31.90;49.10
49385;DHT22;36795;45.028;38.968;2022-08-11T16:15:56;31.80;49.30
49385;DHT22;36795;45.028;38.968;2022-08-11T16:19:00;31.70;49.60
49385;DHT22;36795;45.028;38.968;2022-08-11T16:21:48;31.60;50.00
49385;DHT22;36795;45.028;38.968;2022-08-11T16:24:39;31.60;50.20
49385;DHT22;36795;45.028;38.968;2022-08-11T16:27:30;31.50;50.40
49385;DHT22;36795;45.028;38.968;2022-08-11T16:30:18;31.40;50.50
49385;DHT22;36795;45.028;38.968;2022-08-11T16:33:05;31.30;50.90
49385;DHT22;36795;45.028;38.968;2022-08-11T16:35:53;31.20;51.10
49385;DHT22;36795;45.028;38.968;2022-08-11T16:38:59;31.20;51.30
49385;DHT22;36795;45.028;38.968;2022-08-11T16:41:47;31.20;51.50
49385;DHT22;36795;45.028;38.968;2022-08-11T16:44:54;31.20;51.70
49385;DHT22;36795;45.028;38.968;2022-08-11T16:48:01;31.10;51.90
49385;DHT22;36795;45.028;38.968;2022-08-11T16:50:48;31.00;52.00
49385;DHT22;36795;45.028;38.968;2022-08-11T16:53:34;31.00;52.00
49385;DHT22;36795;45.028;38.968;2022-08-11T16:56:24;31.00;52.20
49385;DHT22;36795;45.028;38.968;2022-08-11T16:59:27;30.90;52.30
49385;DHT22;36795;45.028;38.968;2022-08-11T17:02:19;30.90;52.50
49385;DHT22;36795;45.028;38.968;2022-08-11T17:05:24;30.80;52.30
49385;DHT22;36795;45.028;38.968;2022-08-11T17:08:35;30.90;52.50
49385;DHT22;36795;45.028;38.968;2022-08-11T17:11:49;30.90;53.10
49385;DHT22;36795;45.028;38.968;2022-08-11T17:14:57;30.90;53.30
49385;DHT22;36795;45.028;38.968;2022-08-11T17:17:45;30.80;53.50
49385;DHT22;36795;45.028;38.968;2022-08-11T17:20:33;30.80;53.70
49385;DHT22;36795;45.028;38.968;2022-08-11T17:23:20;30.80;53.70
49385;DHT22;36795;45.028;38.968;2022-08-11T17:26:41;30.70;53.80
49385;DHT22;36795;45.028;38.968;2022-08-11T17:29:51;30.70;54.10
49385;DHT22;36795;45.028;38.968;2022-08-11T17:32:49;30.70;54.30
49385;DHT22;36795;45.028;38.968;2022-08-11T17:35:55;30.60;54.60
49385;DHT22;36795;45.028;38.968;2022-08-11T17:38:42;30.60;54.80
49385;DHT22;36795;45.028;38.968;2022-08-11T17:41:29;30.50;55.00
49385;DHT22;36795;45.028;38.968;2022-08-11T17:44:34;30.60;55.20
49385;DHT22;36795;45.028;38.968;2022-08-11T17:47:40;30.60;55.30
49385;DHT22;36795;45.028;38.968;2022-08-11T17:50:47;30.60;55.40
49385;DHT22;36795;45.028;38.968;2022-08-11T17:53:42;30.60;55.60
49385;DHT22;36795;45.028;38.968;2022-08-11T17:56:48;30.60;55.80
49385;DHT22;36795;45.028;38.968;2022-08-11T17:59:53;30.60;56.00
49385;DHT22;36795;45.028;38.968;2022-08-11T18:02:44;30.50;56.10
49385;DHT22;36795;45.028;38.968;2022-08-11T18:05:50;30.40;56.20
49385;DHT22;36795;45.028;38.968;2022-08-11T18:08:41;30.40;56.30
49385;DHT22;36795;45.028;38.968;2022-08-11T18:11:48;30.40;56.60
49385;DHT22;36795;45.028;38.968;2022-08-11T18:14:54;30.40;56.80
49385;DHT22;36795;45.028;38.968;2022-08-11T18:17:59;30.30;57.00
49385;DHT22;36795;45.028;38.968;2022-08-11T18:21:04;30.20;57.30
49385;DHT22;36795;45.028;38.968;2022-08-11T18:24:12;30.20;57.50
49385;DHT22;36795;45.028;38.968;2022-08-11T18:27:18;30.20;57.70
49385;DHT22;36795;45.028;38.968;2022-08-11T18:30:25;30.10;57.80
49385;DHT22;36795;45.028;38.968;2022-08-11T18:33:52;30.10;58.00
49385;DHT22;36795;45.028;38.968;2022-08-11T18:37:04;30.00;58.10
49385;DHT22;36795;45.028;38.968;2022-08-11T18:40:27;29.90;58.40
49385;DHT22;36795;45.028;38.968;2022-08-11T18:43:37;29.90;58.50
49385;DHT22;36795;45.028;38.968;2022-08-11T18:46:44;29.90;58.60
49385;DHT22;36795;45.028;38.968;2022-08-11T18:49:52;30.00;58.50
49385;DHT22;36795;45.028;38.968;2022-08-11T18:52:58;30.00;58.40
49385;DHT22;36795;45.028;38.968;2022-08-11T18:56:04;30.00;58.60
49385;DHT22;36795;45.028;38.968;2022-08-11T18:59:10;29.90;58.80
49385;DHT22;36795;45.028;38.968;2022-08-11T19:02:16;29.90;59.10
49385;DHT22;36795;45.028;38.968;2022-08-11T19:05:22;29.80;59.30
49385;DHT22;36795;45.028;38.968;2022-08-11T19:08:32;29.80;59.50
49385;DHT22;36795;45.028;38.968;2022-08-11T19:11:38;29.80;60.00
49385;DHT22;36795;45.028;38.968;2022-08-11T19:14:44;29.70;60.30
49385;DHT22;36795;45.028;38.968;2022-08-11T19:17:51;29.70;60.70
49385;DHT22;36795;45.028;38.968;2022-08-11T19:20:58;29.60;61.00
49385;DHT22;36795;45.028;38.968;2022-08-11T19:24:04;29.50;61.30
49385;DHT22;36795;45.028;38.968;2022-08-11T19:27:11;29.40;61.50
49385;DHT22;36795;45.028;38.968;2022-08-11T19:30:16;29.40;61.70
49385;DHT22;36795;45.028;38.968;2022-08-11T19:33:21;29.40;61.90
49385;DHT22;36795;45.028;38.968;2022-08-11T19:36:26;29.40;62.20
49385;DHT22;36795;45.028;38.968;2022-08-11T19:39:32;29.40;62.10
49385;DHT22;36795;45.028;38.968;2022-08-11T19:42:40;29.30;62.20
49385;DHT22;36795;45.028;38.968;2022-08-11T19:45:46;29.30;62.60
49385;DHT22;36795;45.028;38.968;2022-08-11T19:48:53;29.10;62.70
49385;DHT22;36795;45.028;38.968;2022-08-11T19:51:58;29.10;62.90
49385;DHT22;36795;45.028;38.968;2022-08-11T19:55:05;29.10;63.40
49385;DHT22;36795;45.028;38.968;2022-08-11T19:58:12;29.10;63.40
49385;DHT22;36795;45.028;38.968;2022-08-11T20:01:17;29.10;63.50
49385;DHT22;36795;45.028;38.968;2022-08-11T20:04:22;29.20;63.50
49385;DHT22;36795;45.028;38.968;2022-08-11T20:07:27;29.10;63.60
49385;DHT22;36795;45.028;38.968;2022-08-11T20:10:35;29.00;63.90
49385;DHT22;36795;45.028;38.968;2022-08-11T20:13:41;29.00;64.20
49385;DHT22;36795;45.028;38.968;2022-08-11T20:16:47;28.90;64.20
49385;DHT22;36795;45.028;38.968;2022-08-11T20:19:51;28.90;64.30
49385;DHT22;36795;45.028;38.968;2022-08-11T20:23:01;28.90;64.30
49385;DHT22;36795;45.028;38.968;2022-08-11T20:26:06;29.00;64.60
49385;DHT22;36795;45.028;38.968;2022-08-11T20:29:11;28.90;64.60
49385;DHT22;36795;45.028;38.968;2022-08-11T20:32:16;28.90;64.70
49385;DHT22;36795;45.028;38.968;2022-08-11T20:35:22;28.90;64.90
49385;DHT22;36795;45.028;38.968;2022-08-11T20:38:30;28.90;65.20
49385;DHT22;36795;45.028;38.968;2022-08-11T20:41:37;28.80;65.50
49385;DHT22;36795;45.028;38.968;2022-08-11T20:44:45;28.70;65.70
49385;DHT22;36795;45.028;38.968;2022-08-11T20:47:55;28.60;66.00
49385;DHT22;36795;45.028;38.968;2022-08-11T20:51:00;28.70;66.20
49385;DHT22;36795;45.028;38.968;2022-08-11T20:54:06;28.50;66.40
49385;DHT22;36795;45.028;38.968;2022-08-11T20:57:12;28.50;66.60
49385;DHT22;36795;45.028;38.968;2022-08-11T21:00:18;28.40;66.70
49385;DHT22;36795;45.028;38.968;2022-08-11T21:03:23;28.40;66.70
49385;DHT22;36795;45.028;38.968;2022-08-11T21:06:28;28.30;66.60
49385;DHT22;36795;45.028;38.968;2022-08-11T21:09:34;28.40;66.60
49385;DHT22;36795;45.028;38.968;2022-08-11T21:12:41;28.40;66.60
49385;DHT22;36795;45.028;38.968;2022-08-11T21:15:47;28.50;66.60
49385;DHT22;36795;45.028;38.968;2022-08-11T21:19:11;28.50;66.70
49385;DHT22;36795;45.028;38.968;2022-08-11T21:22:20;28.50;66.80
49385;DHT22;36795;45.028;38.968;2022-08-11T21:25:27;28.40;66.90
49385;DHT22;36795;45.028;38.968;2022-08-11T21:28:39;28.30;67.20
49385;DHT22;36795;45.028;38.968;2022-08-11T21:31:45;28.30;67.60
49385;DHT22;36795;45.028;38.968;2022-08-11T21:34:51;28.30;68.00
49385;DHT22;36795;45.028;38.968;2022-08-11T21:37:57;28.30;67.90
49385;DHT22;36795;45.028;38.968;2022-08-11T21:41:02;28.20;68.10
49385;DHT22;36795;45.028;38.968;2022-08-11T21:44:08;28.20;68.20
49385;DHT22;36795;45.028;38.968;2022-08-11T21:47:13;28.20;68.40
49385;DHT22;36795;45.028;38.968;2022-08-11T21:50:18;28.20;68.50
49385;DHT22;36795;45.028;38.968;2022-08-11T21:53:25;28.20;68.60
49385;DHT22;36795;45.028;38.968;2022-08-11T21:56:32;28.20;68.80